Minneapolis, Minnesota
Traffic Map
Current Weather Conditions
Minneapolis, Minnesota
Few Clouds
Few Clouds
13°
Feels Like: 13°
Wind Chill: 13° Ceiling: Unl
Heat Index: 13° Visibility: 10mi
Dew Point: Wind: 8mph
Humidity: 44% Direction: 60° (ENE)
Pressure: 30.13in Gusts: 0mph
Raw Report DataKMSP 291853Z 06007KT 010V080 10SM FEW250 13/01 A3013 RMK AO2 SLP208 T01330011 $
Traffic Incident Summary
Active as of:
Severity:
Category:
InformationThere was an issue retrieving the traffic information for this location. Please try a different location or try again shortly.
Advertisements
Track Severe Weather on mobile